createdAt,value
2023-05-14T00:00:33.582Z,14.85
2023-05-14T00:03:03.822Z,14.80
2023-05-14T00:05:33.974Z,14.77
2023-05-14T00:08:03.981Z,14.83
2023-05-14T00:10:34.163Z,14.84
2023-05-14T00:13:04.342Z,14.87
2023-05-14T00:15:34.688Z,14.94
2023-05-14T00:18:05.064Z,14.88
2023-05-14T00:20:36.217Z,14.84
2023-05-14T00:23:06.306Z,14.64
2023-05-14T00:25:36.993Z,14.64
2023-05-14T00:28:07.280Z,14.68
2023-05-14T00:30:37.374Z,14.78
2023-05-14T00:33:08.479Z,14.74
2023-05-14T00:35:57.985Z,14.54
2023-05-14T00:38:30.506Z,14.46
2023-05-14T00:41:00.603Z,14.47
2023-05-14T00:43:30.659Z,14.53
2023-05-14T00:46:01.092Z,14.60
2023-05-14T00:48:31.549Z,14.61
2023-05-14T00:51:01.728Z,14.63
2023-05-14T00:53:32.259Z,14.64
2023-05-14T00:56:02.296Z,14.67
2023-05-14T00:58:32.293Z,14.64
2023-05-14T01:01:02.464Z,14.67
2023-05-14T01:03:36.159Z,14.67
2023-05-14T01:06:20.051Z,14.68
2023-05-14T01:08:59.114Z,14.70
2023-05-14T01:11:38.173Z,14.70
2023-05-14T01:14:17.776Z,14.63
2023-05-14T01:16:49.430Z,14.51
2023-05-14T01:19:39.553Z,14.59
2023-05-14T01:22:09.653Z,14.56
2023-05-14T01:24:40.195Z,14.30
2023-05-14T01:27:15.067Z,14.34
2023-05-14T01:29:54.454Z,14.38
2023-05-14T01:32:26.581Z,14.37
2023-05-14T01:34:59.958Z,14.43
2023-05-14T01:37:32.678Z,14.43
2023-05-14T01:40:04.067Z,14.46
2023-05-14T01:42:34.617Z,14.10
2023-05-14T01:45:05.147Z,13.99
2023-05-14T01:47:35.272Z,14.05
2023-05-14T01:50:05.729Z,14.05
2023-05-14T01:52:36.943Z,14.15
2023-05-14T01:55:08.201Z,14.17
2023-05-14T01:57:38.634Z,14.17
2023-05-14T02:00:09.522Z,14.15
2023-05-14T02:02:45.210Z,14.13
2023-05-14T02:05:15.737Z,14.13
2023-05-14T02:07:45.773Z,14.13
2023-05-14T02:10:16.369Z,14.13
2023-05-14T02:12:51.025Z,14.05
2023-05-14T02:15:21.369Z,14.01
2023-05-14T02:17:51.472Z,13.98
2023-05-14T02:20:21.931Z,14.01
2023-05-14T02:23:11.453Z,14.09
2023-05-14T02:25:41.687Z,14.12
2023-05-14T02:28:11.805Z,14.10
2023-05-14T02:30:41.968Z,14.09
2023-05-14T02:33:11.783Z,14.12
2023-05-14T02:35:41.845Z,14.08
2023-05-14T02:38:11.772Z,14.06
2023-05-14T02:40:41.707Z,14.05
2023-05-14T02:43:11.588Z,14.05
2023-05-14T02:45:41.440Z,14.04
2023-05-14T02:48:11.531Z,14.05
2023-05-14T02:50:42.046Z,14.04
2023-05-14T02:53:12.658Z,14.02
2023-05-14T02:55:42.523Z,14.04
2023-05-14T02:58:12.259Z,14.02
2023-05-14T03:00:42.444Z,14.02
2023-05-14T03:03:13.252Z,13.98
2023-05-14T03:05:43.200Z,13.95
2023-05-14T03:08:13.018Z,13.76
2023-05-14T03:10:43.072Z,13.59
2023-05-14T03:13:13.126Z,13.72
2023-05-14T03:15:43.185Z,13.76
2023-05-14T03:18:13.266Z,13.78
2023-05-14T03:20:43.898Z,13.75
2023-05-14T03:23:16.032Z,13.76
2023-05-14T03:25:46.092Z,13.76
2023-05-14T03:28:16.446Z,13.76
2023-05-14T03:30:46.762Z,13.76
2023-05-14T03:33:16.904Z,13.81
2023-05-14T03:35:47.001Z,13.82
2023-05-14T03:38:17.176Z,13.82
2023-05-14T03:40:49.902Z,13.86
2023-05-14T03:43:19.581Z,13.89
2023-05-14T03:45:53.636Z,13.75
2023-05-14T03:48:24.061Z,13.71
2023-05-14T03:50:55.273Z,13.72
2023-05-14T03:53:25.361Z,13.58
2023-05-14T03:55:55.612Z,13.59
2023-05-14T03:58:25.767Z,13.62
2023-05-14T04:00:56.281Z,13.66
2023-05-14T04:03:45.159Z,13.71
2023-05-14T04:06:16.073Z,13.74
2023-05-14T04:08:46.129Z,13.75
2023-05-14T04:11:16.299Z,13.75
2023-05-14T04:13:46.362Z,13.75
2023-05-14T04:16:16.533Z,13.76
2023-05-14T04:18:47.177Z,13.69
2023-05-14T04:21:18.034Z,13.65
2023-05-14T04:23:48.143Z,13.66
2023-05-14T04:26:18.384Z,13.62
2023-05-14T04:28:48.454Z,13.41
2023-05-14T04:31:18.553Z,13.41
2023-05-14T04:33:48.877Z,13.44
2023-05-14T04:36:18.959Z,13.31
2023-05-14T04:38:48.970Z,13.24
2023-05-14T04:41:18.974Z,13.17
2023-05-14T04:43:51.876Z,13.06
2023-05-14T04:46:22.143Z,13.04
2023-05-14T04:48:52.994Z,13.03
2023-05-14T04:51:23.407Z,12.93
2023-05-14T04:53:53.485Z,12.99
2023-05-14T04:56:23.588Z,13.00
2023-05-14T04:58:53.602Z,12.96
2023-05-14T05:01:24.621Z,12.87
2023-05-14T05:03:55.077Z,12.76
2023-05-14T05:06:25.279Z,12.73
2023-05-14T05:08:55.390Z,12.75
2023-05-14T05:11:25.545Z,12.83
2023-05-14T05:13:55.849Z,12.96
2023-05-14T05:16:26.095Z,12.94
2023-05-14T05:18:56.298Z,12.89
2023-05-14T05:21:27.287Z,12.92
2023-05-14T05:24:16.883Z,13.03
2023-05-14T05:26:47.007Z,12.99
2023-05-14T05:29:17.148Z,13.02
2023-05-14T05:31:47.389Z,13.07
2023-05-14T05:34:17.656Z,13.08
2023-05-14T05:36:47.820Z,13.10
2023-05-14T05:39:17.740Z,13.13
2023-05-14T05:41:47.620Z,13.13
2023-05-14T05:44:17.411Z,13.14
2023-05-14T05:46:47.373Z,13.18
2023-05-14T05:49:17.546Z,13.23
2023-05-14T05:51:48.105Z,13.11
2023-05-14T05:54:18.278Z,12.93
2023-05-14T05:56:48.503Z,12.82
2023-05-14T05:59:18.677Z,12.94
2023-05-14T06:01:49.308Z,12.97
2023-05-14T06:04:18.964Z,13.02
2023-05-14T06:06:49.158Z,13.06
2023-05-14T06:09:19.503Z,13.11
2023-05-14T06:11:49.746Z,13.08
2023-05-14T06:14:19.726Z,13.07
2023-05-14T06:16:49.820Z,13.07
2023-05-14T06:19:20.316Z,13.07
2023-05-14T06:21:50.506Z,13.10
2023-05-14T06:24:21.680Z,13.00
2023-05-14T06:26:51.894Z,12.97
2023-05-14T06:29:22.212Z,12.86
2023-05-14T06:31:52.391Z,12.86
2023-05-14T06:34:23.183Z,12.90
2023-05-14T06:36:53.298Z,12.79
2023-05-14T06:39:23.428Z,12.66
2023-05-14T06:41:53.484Z,12.55
2023-05-14T06:44:25.969Z,12.65
2023-05-14T06:46:56.100Z,12.56
2023-05-14T06:49:26.408Z,12.53
2023-05-14T06:51:56.509Z,12.53
2023-05-14T06:54:26.986Z,12.63
2023-05-14T06:56:57.135Z,12.70
2023-05-14T06:59:27.600Z,12.62
2023-05-14T07:01:57.795Z,12.56
2023-05-14T07:04:27.781Z,12.65
2023-05-14T07:06:57.910Z,12.60
2023-05-14T07:09:27.990Z,12.59
2023-05-14T07:11:58.018Z,12.41
2023-05-14T07:14:28.114Z,12.49
2023-05-14T07:16:59.419Z,12.46
2023-05-14T07:19:31.386Z,12.43
2023-05-14T07:22:02.307Z,12.50
2023-05-14T07:24:32.394Z,12.55
2023-05-14T07:27:03.042Z,12.59
2023-05-14T07:29:36.056Z,12.49
2023-05-14T07:32:06.577Z,12.28
2023-05-14T07:34:36.340Z,12.25
2023-05-14T07:37:06.470Z,12.21
2023-05-14T07:39:37.225Z,12.29
2023-05-14T07:42:07.450Z,12.25
2023-05-14T07:44:38.219Z,12.21
2023-05-14T07:47:09.822Z,12.17
2023-05-14T07:49:40.029Z,12.11
2023-05-14T07:52:10.061Z,12.11
2023-05-14T07:54:40.980Z,12.10
2023-05-14T07:57:30.182Z,12.15
2023-05-14T08:00:00.280Z,12.02
2023-05-14T08:02:30.710Z,11.97
2023-05-14T08:05:00.970Z,11.98
2023-05-14T08:07:50.355Z,11.95
2023-05-14T08:10:20.571Z,11.87
2023-05-14T08:12:50.626Z,11.90
2023-05-14T08:15:20.481Z,12.06
2023-05-14T08:17:50.627Z,11.99
2023-05-14T08:20:21.048Z,11.98
2023-05-14T08:22:51.156Z,11.93
2023-05-14T08:25:21.251Z,11.94
2023-05-14T08:27:51.526Z,11.88
2023-05-14T08:30:23.369Z,11.91
2023-05-14T08:32:54.169Z,11.90
2023-05-14T08:35:24.365Z,12.02
2023-05-14T08:37:54.490Z,12.14
2023-05-14T08:40:24.706Z,12.15
2023-05-14T08:42:55.680Z,12.15
2023-05-14T08:45:36.589Z,12.20
2023-05-14T08:48:10.021Z,12.25
2023-05-14T08:50:40.351Z,12.24
2023-05-14T08:53:10.386Z,12.25
2023-05-14T08:55:41.587Z,12.35
2023-05-14T08:58:12.006Z,12.36
2023-05-14T09:00:42.281Z,12.25
2023-05-14T09:03:12.819Z,12.26
2023-05-14T09:05:43.531Z,12.28
2023-05-14T09:08:14.253Z,12.24
2023-05-14T09:10:44.553Z,12.20
2023-05-14T09:13:15.048Z,12.11
2023-05-14T09:16:04.960Z,12.01
2023-05-14T09:18:38.022Z,11.99
2023-05-14T09:21:10.078Z,12.05
2023-05-14T09:23:48.977Z,12.17
2023-05-14T09:26:20.066Z,12.17
2023-05-14T09:28:50.298Z,12.18
2023-05-14T09:31:20.553Z,12.25
2023-05-14T09:33:54.044Z,12.25
2023-05-14T09:36:43.651Z,12.25
2023-05-14T09:39:13.777Z,12.25
2023-05-14T09:41:43.772Z,12.20
2023-05-14T09:44:13.631Z,12.02
2023-05-14T09:46:43.464Z,12.06
2023-05-14T09:49:13.515Z,12.12
2023-05-14T09:51:43.798Z,12.04
2023-05-14T09:54:14.184Z,12.08
2023-05-14T09:56:45.527Z,12.01
2023-05-14T09:59:16.066Z,11.90
2023-05-14T10:01:47.401Z,11.97
2023-05-14T10:04:17.597Z,11.91
2023-05-14T10:06:53.056Z,11.83
2023-05-14T10:09:27.341Z,11.97
2023-05-14T10:12:02.471Z,11.87
2023-05-14T10:14:47.472Z,11.83
2023-05-14T10:17:21.119Z,11.83
2023-05-14T10:19:57.583Z,11.95
2023-05-14T10:22:33.465Z,12.02
2023-05-14T10:25:05.093Z,11.93
2023-05-14T10:27:35.409Z,11.84
2023-05-14T10:30:12.949Z,11.78
2023-05-14T10:32:45.203Z,11.88
2023-05-14T10:35:26.436Z,11.88
2023-05-14T10:37:56.538Z,11.97
2023-05-14T10:40:27.109Z,11.97
2023-05-14T10:43:00.596Z,12.08
2023-05-14T10:45:31.679Z,12.06
2023-05-14T10:48:02.147Z,12.05
2023-05-14T10:50:32.325Z,12.10
2023-05-14T10:53:02.582Z,12.10
2023-05-14T10:55:34.184Z,12.06
2023-05-14T10:58:07.122Z,12.11
2023-05-14T11:00:37.517Z,12.22
2023-05-14T11:03:08.859Z,12.14
2023-05-14T11:05:40.818Z,12.22
2023-05-14T11:08:12.083Z,12.28
2023-05-14T11:10:43.517Z,12.35
2023-05-14T11:13:13.808Z,12.42
2023-05-14T11:15:49.229Z,12.48
2023-05-14T11:18:34.347Z,12.55
2023-05-14T11:21:05.147Z,12.56
2023-05-14T11:23:35.293Z,12.59
2023-05-14T11:26:05.620Z,12.62
2023-05-14T11:28:36.429Z,12.69
2023-05-14T11:31:26.819Z,12.70
2023-05-14T11:33:57.340Z,12.72
2023-05-14T11:36:27.390Z,12.80
2023-05-14T11:38:57.526Z,12.93
2023-05-14T11:41:29.224Z,12.93
2023-05-14T11:44:00.173Z,13.00
2023-05-14T11:46:31.937Z,13.08
2023-05-14T11:49:02.094Z,13.13
2023-05-14T11:51:33.083Z,13.15
2023-05-14T11:54:05.145Z,13.14
2023-05-14T11:56:35.193Z,13.21
2023-05-14T11:59:05.534Z,13.28
2023-05-14T12:01:41.522Z,13.35
2023-05-14T12:04:11.883Z,13.45
2023-05-14T12:06:42.826Z,13.53
2023-05-14T12:09:17.432Z,13.62
2023-05-14T12:11:48.793Z,13.71
2023-05-14T12:14:26.072Z,13.79
2023-05-14T12:16:56.062Z,13.83
2023-05-14T12:19:27.008Z,13.94
2023-05-14T12:21:57.214Z,14.01
2023-05-14T12:24:27.636Z,14.13
2023-05-14T12:26:58.592Z,14.22
2023-05-14T12:29:28.808Z,14.26
2023-05-14T12:32:00.485Z,14.32
2023-05-14T12:34:31.011Z,14.33
2023-05-14T12:37:01.067Z,14.41
2023-05-14T12:39:33.841Z,14.46
2023-05-14T12:42:04.112Z,14.51
2023-05-14T12:44:34.192Z,14.56
2023-05-14T12:50:17.598Z,14.76
2023-05-14T12:52:47.770Z,14.85
2023-05-14T12:55:17.625Z,14.88
2023-05-14T12:57:47.727Z,14.95
2023-05-14T13:00:18.420Z,15.05
2023-05-14T13:02:48.850Z,15.08
2023-05-14T13:05:19.059Z,15.18
2023-05-14T13:07:49.196Z,15.34
2023-05-14T13:10:19.685Z,15.42
2023-05-14T13:12:49.810Z,15.55
2023-05-14T13:15:19.902Z,15.71
2023-05-14T13:17:50.551Z,16.00
2023-05-14T13:20:20.736Z,15.93
2023-05-14T13:22:50.618Z,15.96
2023-05-14T13:25:20.483Z,16.00
2023-05-14T13:27:52.247Z,16.10
2023-05-14T13:30:22.800Z,16.20
2023-05-14T13:32:52.616Z,16.37
2023-05-14T13:35:22.887Z,16.69
2023-05-14T13:37:53.217Z,16.68
2023-05-14T13:40:24.307Z,16.67
2023-05-14T13:42:54.423Z,16.79
2023-05-14T13:45:24.767Z,16.83
2023-05-14T13:47:57.638Z,17.23
2023-05-14T13:50:27.637Z,17.27
2023-05-14T13:52:57.508Z,17.75
2023-05-14T13:55:27.567Z,18.08
2023-05-14T13:57:57.816Z,18.18
2023-05-14T14:00:28.849Z,18.11
2023-05-14T14:03:18.044Z,18.09
2023-05-14T14:05:48.228Z,18.29
2023-05-14T14:08:23.906Z,18.93
2023-05-14T14:10:56.362Z,19.07
2023-05-14T14:13:26.536Z,19.34
2023-05-14T14:15:56.870Z,19.51
2023-05-14T14:18:27.049Z,19.65
2023-05-14T14:20:57.344Z,19.72
2023-05-14T14:23:27.468Z,19.79
2023-05-14T14:25:57.620Z,19.92
2023-05-14T14:28:27.701Z,20.08
2023-05-14T14:30:57.565Z,20.24
2023-05-14T14:33:28.267Z,20.44
2023-05-14T14:35:58.387Z,20.53
2023-05-14T14:38:28.506Z,20.68
2023-05-14T14:40:59.539Z,20.90
2023-05-14T14:43:29.571Z,20.84
2023-05-14T14:45:59.435Z,21.08
2023-05-14T14:48:35.109Z,21.14
2023-05-14T14:51:06.552Z,21.12
2023-05-14T14:53:38.169Z,21.16
2023-05-14T14:56:08.516Z,21.08
2023-05-14T14:58:39.558Z,21.18
2023-05-14T15:01:09.845Z,21.36
2023-05-14T15:03:40.033Z,21.46
2023-05-14T15:06:10.260Z,21.57
2023-05-14T15:08:40.368Z,21.70
2023-05-14T15:11:10.856Z,21.85
2023-05-14T15:13:42.912Z,21.89
2023-05-14T15:16:13.847Z,21.93
2023-05-14T15:18:44.008Z,22.03
2023-05-14T15:21:14.116Z,22.16
2023-05-14T15:23:44.157Z,22.35
2023-05-14T15:26:14.286Z,22.30
2023-05-14T15:28:44.671Z,22.47
2023-05-14T15:31:14.278Z,22.55
2023-05-14T15:33:44.251Z,22.49
2023-05-14T15:36:13.856Z,22.58
2023-05-14T15:38:43.743Z,22.49
2023-05-14T15:41:13.538Z,22.57
2023-05-14T15:43:43.315Z,22.72
2023-05-14T15:46:13.630Z,22.76
2023-05-14T15:48:43.730Z,22.73
2023-05-14T15:51:13.756Z,22.82
2023-05-14T15:53:43.629Z,22.99
2023-05-14T15:56:14.368Z,22.94
2023-05-14T15:58:44.477Z,22.94
2023-05-14T16:01:14.622Z,23.20
2023-05-14T16:03:44.538Z,23.31
2023-05-14T16:06:14.319Z,23.33
2023-05-14T16:08:45.592Z,23.27
2023-05-14T16:11:15.607Z,23.30
2023-05-14T16:13:45.756Z,23.24
2023-05-14T16:16:15.675Z,23.42
2023-05-14T16:18:45.661Z,23.64
2023-05-14T16:21:15.495Z,23.66
2023-05-14T16:23:45.400Z,23.56
2023-05-14T16:26:14.995Z,24.01
2023-05-14T16:28:44.951Z,24.17
2023-05-14T16:31:16.497Z,23.88
2023-05-14T16:33:47.956Z,23.87
2023-05-14T16:36:18.252Z,24.43
2023-05-14T16:39:06.051Z,24.91
2023-05-14T16:41:37.552Z,25.11
2023-05-14T16:44:07.645Z,25.19
2023-05-14T16:46:37.948Z,25.54
2023-05-14T16:49:08.158Z,26.01
2023-05-14T16:51:43.432Z,26.63
2023-05-14T16:54:13.544Z,27.14
2023-05-14T16:56:43.690Z,27.69
2023-05-14T16:59:14.421Z,28.68
2023-05-14T17:01:45.743Z,29.16
2023-05-14T17:04:16.161Z,28.74
2023-05-14T17:06:48.631Z,29.25
2023-05-14T17:09:18.889Z,29.60
2023-05-14T17:11:48.961Z,29.09
2023-05-14T17:14:19.002Z,28.96
2023-05-14T17:16:48.750Z,29.78
2023-05-14T17:19:18.405Z,29.59
2023-05-14T17:21:47.993Z,30.62
2023-05-14T17:24:17.901Z,31.07
2023-05-14T17:26:47.965Z,30.05
2023-05-14T17:29:18.110Z,29.46
2023-05-14T17:31:49.459Z,29.96
2023-05-14T17:34:19.605Z,29.96
2023-05-14T17:36:49.660Z,29.78
2023-05-14T17:39:19.527Z,26.67
2023-05-14T17:41:49.648Z,24.94
2023-05-14T17:44:19.865Z,24.93
2023-05-14T17:46:50.792Z,25.17
2023-05-14T17:49:20.868Z,25.21
2023-05-14T17:51:50.390Z,27.48
2023-05-14T17:54:20.142Z,26.60
2023-05-14T17:56:52.006Z,24.59
2023-05-14T17:59:24.117Z,23.94
2023-05-14T18:01:54.382Z,23.57
2023-05-14T18:04:24.105Z,23.58
2023-05-14T18:06:54.142Z,23.46
2023-05-14T18:09:23.760Z,23.47
2023-05-14T18:11:54.725Z,23.63
2023-05-14T18:14:27.071Z,23.42
2023-05-14T18:16:57.396Z,23.17
2023-05-14T18:19:27.468Z,22.98
2023-05-14T18:21:57.058Z,22.88
2023-05-14T18:24:27.373Z,22.86
2023-05-14T18:26:57.445Z,22.91
2023-05-14T18:29:27.627Z,22.91
2023-05-14T18:31:57.186Z,22.86
2023-05-14T18:34:26.885Z,22.73
2023-05-14T18:36:57.483Z,22.72
2023-05-14T18:39:27.729Z,22.68
2023-05-14T18:41:57.870Z,22.65
2023-05-14T18:44:27.869Z,22.57
2023-05-14T18:46:58.120Z,22.58
2023-05-14T18:49:28.785Z,22.55
2023-05-14T18:51:58.581Z,22.52
2023-05-14T18:54:28.369Z,22.45
2023-05-14T18:56:58.621Z,22.47
2023-05-14T18:59:28.208Z,22.45
2023-05-14T19:01:58.018Z,22.40
2023-05-14T19:04:28.561Z,22.40
2023-05-14T19:06:59.683Z,22.38
2023-05-14T19:09:29.509Z,22.38
2023-05-14T19:11:59.683Z,22.30
2023-05-14T19:14:30.137Z,22.28
2023-05-14T19:17:00.252Z,22.28
2023-05-14T19:19:30.453Z,22.20
2023-05-14T19:22:03.811Z,22.11
2023-05-14T19:24:34.828Z,22.04
2023-05-14T19:27:05.203Z,22.03
2023-05-14T19:29:35.427Z,22.08
2023-05-14T19:32:05.894Z,22.89
2023-05-14T19:34:35.895Z,22.35
2023-05-14T19:37:06.497Z,22.08
2023-05-14T19:39:36.658Z,22.01
2023-05-14T19:42:06.833Z,22.06
2023-05-14T19:44:36.938Z,22.11
2023-05-14T19:47:07.429Z,21.97
2023-05-14T19:49:37.824Z,22.07
2023-05-14T19:52:08.032Z,21.80
2023-05-14T19:54:38.096Z,21.76
2023-05-14T19:57:08.170Z,21.69
2023-05-14T19:59:39.540Z,21.63
2023-05-14T20:02:10.242Z,21.45
2023-05-14T20:04:41.127Z,21.35
2023-05-14T20:07:11.311Z,21.34
2023-05-14T20:09:41.489Z,21.22
2023-05-14T20:12:12.031Z,21.15
2023-05-14T20:14:42.821Z,21.01
2023-05-14T20:17:12.789Z,20.92
2023-05-14T20:19:42.853Z,20.95
2023-05-14T20:22:12.582Z,20.84
2023-05-14T20:24:42.514Z,20.78
2023-05-14T20:27:13.103Z,20.71
2023-05-14T20:29:43.225Z,20.64
2023-05-14T20:32:13.691Z,20.56
2023-05-14T20:34:43.072Z,20.48
2023-05-14T20:37:13.100Z,20.39
2023-05-14T20:39:42.700Z,20.37
2023-05-14T20:42:12.428Z,20.29
2023-05-14T20:44:42.458Z,20.20
2023-05-14T20:47:13.928Z,20.10
2023-05-14T20:49:44.015Z,20.00
2023-05-14T20:52:15.055Z,19.93
2023-05-14T20:54:45.153Z,19.86
2023-05-14T20:57:17.139Z,19.74
2023-05-14T20:59:50.313Z,19.62
2023-05-14T21:02:21.479Z,19.55
2023-05-14T21:04:51.859Z,19.45
2023-05-14T21:07:22.127Z,19.41
2023-05-14T21:09:53.541Z,19.31
2023-05-14T21:12:23.847Z,19.20
2023-05-14T21:14:53.655Z,19.14
2023-05-14T21:17:23.741Z,19.04
2023-05-14T21:19:54.078Z,19.03
2023-05-14T21:22:24.408Z,18.94
2023-05-14T21:24:54.052Z,18.94
2023-05-14T21:27:24.428Z,18.82
2023-05-14T21:29:54.513Z,18.73
2023-05-14T21:32:25.128Z,18.63
2023-05-14T21:34:55.209Z,18.57
2023-05-14T21:37:25.322Z,18.51
2023-05-14T21:39:55.406Z,18.42
2023-05-14T21:42:25.518Z,18.36
2023-05-14T21:44:55.526Z,18.32
2023-05-14T21:47:25.736Z,18.28
2023-05-14T21:49:55.812Z,18.22
2023-05-14T21:52:25.661Z,18.18
2023-05-14T21:54:55.523Z,18.19
2023-05-14T21:57:27.389Z,18.15
2023-05-14T21:59:59.282Z,18.13
2023-05-14T22:02:29.395Z,18.08
2023-05-14T22:04:59.584Z,18.13
2023-05-14T22:07:29.842Z,18.13
2023-05-14T22:09:59.977Z,18.08
2023-05-14T22:12:29.861Z,18.06
2023-05-14T22:14:59.980Z,18.01
2023-05-14T22:17:30.382Z,17.90
2023-05-14T22:19:59.922Z,17.80
2023-05-14T22:22:29.869Z,17.73
2023-05-14T22:24:59.968Z,17.69
2023-05-14T22:27:30.453Z,17.61
2023-05-14T22:30:01.434Z,17.57
2023-05-14T22:32:32.661Z,17.53
2023-05-14T22:35:03.665Z,17.54
2023-05-14T22:37:33.986Z,17.53
2023-05-14T22:40:06.350Z,17.47
2023-05-14T22:42:36.455Z,17.44
2023-05-14T22:45:07.153Z,17.41
2023-05-14T22:47:37.206Z,17.30
2023-05-14T22:50:12.533Z,17.12
2023-05-14T22:52:42.890Z,17.03
2023-05-14T22:55:12.741Z,17.08
2023-05-14T22:57:42.454Z,17.00
2023-05-14T23:00:12.911Z,16.98
2023-05-14T23:02:43.199Z,17.00
2023-05-14T23:05:13.440Z,17.06
2023-05-14T23:07:43.541Z,17.08
2023-05-14T23:10:13.654Z,17.09
2023-05-14T23:12:43.453Z,16.99
2023-05-14T23:15:13.683Z,16.86
2023-05-14T23:17:44.021Z,16.78
2023-05-14T23:20:14.590Z,16.85
2023-05-14T23:22:44.654Z,16.83
2023-05-14T23:25:14.622Z,16.85
2023-05-14T23:27:44.727Z,16.85
2023-05-14T23:30:14.967Z,16.85
2023-05-14T23:32:44.599Z,16.78
2023-05-14T23:35:14.527Z,16.68
2023-05-14T23:37:48.186Z,16.69
2023-05-14T23:40:21.308Z,16.69
2023-05-14T23:42:51.782Z,16.67
2023-05-14T23:45:21.347Z,16.62
2023-05-14T23:47:51.281Z,16.48
2023-05-14T23:50:21.790Z,16.44
2023-05-14T23:52:54.454Z,16.45
2023-05-14T23:55:24.814Z,16.44
2023-05-14T23:57:55.051Z,16.37
